sensor_id;sensor_type;location;lat;lon;timestamp;pressure;altitude;pressure_sealevel;temperature;humidity
61484;BME280;47349;55.640;37.692;2023-03-14T00:03:55;99004.63;;;-4.47;86.13
61484;BME280;47349;55.640;37.692;2023-03-14T00:06:40;98995.84;;;-4.46;85.94
61484;BME280;47349;55.640;37.692;2023-03-14T00:09:26;98992.00;;;-4.41;85.54
61484;BME280;47349;55.640;37.692;2023-03-14T00:12:14;98980.91;;;-4.44;85.35
61484;BME280;47349;55.640;37.692;2023-03-14T00:15:00;98982.38;;;-4.40;85.61
61484;BME280;47349;55.640;37.692;2023-03-14T00:17:48;98977.59;;;-4.33;85.49
61484;BME280;47349;55.640;37.692;2023-03-14T00:20:34;98968.69;;;-4.31;85.01
61484;BME280;47349;55.640;37.692;2023-03-14T00:23:19;98952.63;;;-4.25;84.50
61484;BME280;47349;55.640;37.692;2023-03-14T00:26:09;98944.84;;;-4.26;84.61
61484;BME280;47349;55.640;37.692;2023-03-14T00:28:56;98941.94;;;-4.22;84.51
61484;BME280;47349;55.640;37.692;2023-03-14T00:31:41;98939.25;;;-4.20;84.50
61484;BME280;47349;55.640;37.692;2023-03-14T00:34:31;98937.06;;;-4.14;84.21
61484;BME280;47349;55.640;37.692;2023-03-14T00:37:18;98938.31;;;-4.06;83.96
61484;BME280;47349;55.640;37.692;2023-03-14T00:40:03;98931.22;;;-4.04;83.92
61484;BME280;47349;55.640;37.692;2023-03-14T00:42:51;98935.84;;;-3.95;83.93
61484;BME280;47349;55.640;37.692;2023-03-14T00:45:37;98920.78;;;-3.92;83.77
61484;BME280;47349;55.640;37.692;2023-03-14T00:48:22;98925.25;;;-3.94;84.05
61484;BME280;47349;55.640;37.692;2023-03-14T00:51:08;98925.06;;;-3.91;84.48
61484;BME280;47349;55.640;37.692;2023-03-14T00:53:47;98926.72;;;-3.90;84.64
61484;BME280;47349;55.640;37.692;2023-03-14T00:56:15;98930.69;;;-3.84;85.20
61484;BME280;47349;55.640;37.692;2023-03-14T00:58:41;98927.13;;;-3.83;85.43
61484;BME280;47349;55.640;37.692;2023-03-14T01:01:12;98915.75;;;-3.82;86.12
61484;BME280;47349;55.640;37.692;2023-03-14T01:03:39;98904.94;;;-3.77;86.32
61484;BME280;47349;55.640;37.692;2023-03-14T01:06:11;98904.41;;;-3.82;87.07
61484;BME280;47349;55.640;37.692;2023-03-14T01:08:40;98900.75;;;-3.80;87.56
61484;BME280;47349;55.640;37.692;2023-03-14T01:11:11;98901.09;;;-3.72;88.09
61484;BME280;47349;55.640;37.692;2023-03-14T01:13:39;98895.41;;;-3.78;89.18
61484;BME280;47349;55.640;37.692;2023-03-14T01:16:07;98893.22;;;-3.72;90.52
61484;BME280;47349;55.640;37.692;2023-03-14T01:18:54;98882.13;;;-3.75;91.10
61484;BME280;47349;55.640;37.692;2023-03-14T01:21:40;98895.63;;;-3.69;92.51
61484;BME280;47349;55.640;37.692;2023-03-14T01:24:25;98906.22;;;-3.70;93.57
61484;BME280;47349;55.640;37.692;2023-03-14T01:27:19;98894.91;;;-3.71;94.86
61484;BME280;47349;55.640;37.692;2023-03-14T01:30:11;98881.50;;;-3.66;95.94
61484;BME280;47349;55.640;37.692;2023-03-14T01:32:49;98868.72;;;-3.71;97.53
61484;BME280;47349;55.640;37.692;2023-03-14T01:35:16;98843.25;;;-3.69;98.86
61484;BME280;47349;55.640;37.692;2023-03-14T01:37:43;98837.69;;;-3.64;99.87
61484;BME280;47349;55.640;37.692;2023-03-14T01:40:16;98836.66;;;-3.62;100.00
61484;BME280;47349;55.640;37.692;2023-03-14T01:42:45;98823.13;;;-3.68;100.00
61484;BME280;47349;55.640;37.692;2023-03-14T01:45:53;98827.66;;;-3.57;100.00
61484;BME280;47349;55.640;37.692;2023-03-14T01:48:05;98834.09;;;-3.50;100.00
61484;BME280;47349;55.640;37.692;2023-03-14T01:50:32;98840.06;;;-3.48;100.00
61484;BME280;47349;55.640;37.692;2023-03-14T01:52:59;98819.66;;;-3.43;100.00
61484;BME280;47349;55.640;37.692;2023-03-14T01:55:27;98810.09;;;-3.44;100.00
61484;BME280;47349;55.640;37.692;2023-03-14T01:57:56;98795.44;;;-3.47;100.00
61484;BME280;47349;55.640;37.692;2023-03-14T02:00:25;98800.13;;;-3.39;100.00
61484;BME280;47349;55.640;37.692;2023-03-14T02:02:56;98800.88;;;-3.37;100.00
61484;BME280;47349;55.640;37.692;2023-03-14T02:05:25;98792.56;;;-3.31;100.00
61484;BME280;47349;55.640;37.692;2023-03-14T02:07:59;98776.84;;;-3.31;100.00
61484;BME280;47349;55.640;37.692;2023-03-14T02:10:36;98764.25;;;-3.26;100.00
61484;BME280;47349;55.640;37.692;2023-03-14T02:13:04;98778.09;;;-3.24;100.00
61484;BME280;47349;55.640;37.692;2023-03-14T02:16:04;98764.63;;;-3.19;100.00
61484;BME280;47349;55.640;37.692;2023-03-14T02:18:54;98764.53;;;-3.18;100.00
61484;BME280;47349;55.640;37.692;2023-03-14T02:21:52;98753.81;;;-3.15;100.00
61484;BME280;47349;55.640;37.692;2023-03-14T02:24:35;98744.28;;;-3.16;100.00
61484;BME280;47349;55.640;37.692;2023-03-14T02:27:09;98732.25;;;-3.18;100.00
61484;BME280;47349;55.640;37.692;2023-03-14T02:29:45;98734.41;;;-3.12;100.00
61484;BME280;47349;55.640;37.692;2023-03-14T02:32:13;98749.31;;;-3.13;100.00
61484;BME280;47349;55.640;37.692;2023-03-14T02:34:41;98751.09;;;-3.13;100.00
61484;BME280;47349;55.640;37.692;2023-03-14T02:37:11;98732.00;;;-3.15;100.00
61484;BME280;47349;55.640;37.692;2023-03-14T02:39:40;98711.16;;;-3.17;100.00
61484;BME280;47349;55.640;37.692;2023-03-14T02:42:09;98702.13;;;-3.13;100.00
61484;BME280;47349;55.640;37.692;2023-03-14T02:44:47;98692.81;;;-3.17;100.00
61484;BME280;47349;55.640;37.692;2023-03-14T02:47:14;98691.41;;;-3.10;100.00
61484;BME280;47349;55.640;37.692;2023-03-14T02:49:41;98682.81;;;-3.12;100.00
61484;BME280;47349;55.640;37.692;2023-03-14T02:52:08;98699.03;;;-3.06;100.00
61484;BME280;47349;55.640;37.692;2023-03-14T02:54:36;98693.19;;;-3.10;100.00
61484;BME280;47349;55.640;37.692;2023-03-14T02:57:03;98690.69;;;-3.12;100.00
61484;BME280;47349;55.640;37.692;2023-03-14T02:59:30;98679.38;;;-3.12;100.00
61484;BME280;47349;55.640;37.692;2023-03-14T03:02:04;98669.84;;;-3.13;100.00
61484;BME280;47349;55.640;37.692;2023-03-14T03:04:31;98672.97;;;-3.08;100.00
61484;BME280;47349;55.640;37.692;2023-03-14T03:06:58;98683.09;;;-3.03;100.00
61484;BME280;47349;55.640;37.692;2023-03-14T03:09:25;98680.69;;;-3.06;100.00
61484;BME280;47349;55.640;37.692;2023-03-14T03:11:52;98682.84;;;-3.00;100.00
61484;BME280;47349;55.640;37.692;2023-03-14T03:14:22;98688.00;;;-2.99;100.00
61484;BME280;47349;55.640;37.692;2023-03-14T03:16:49;98695.53;;;-2.94;100.00
61484;BME280;47349;55.640;37.692;2023-03-14T03:19:16;98647.25;;;-2.92;100.00
61484;BME280;47349;55.640;37.692;2023-03-14T03:21:46;98654.03;;;-3.00;100.00
61484;BME280;47349;55.640;37.692;2023-03-14T03:24:14;98669.75;;;-3.00;100.00
61484;BME280;47349;55.640;37.692;2023-03-14T03:26:41;98649.38;;;-2.97;100.00
61484;BME280;47349;55.640;37.692;2023-03-14T03:29:09;98640.00;;;-2.88;100.00
61484;BME280;47349;55.640;37.692;2023-03-14T03:31:37;98635.47;;;-2.86;100.00
61484;BME280;47349;55.640;37.692;2023-03-14T03:34:04;98621.41;;;-2.85;100.00
61484;BME280;47349;55.640;37.692;2023-03-14T03:36:31;98620.47;;;-2.84;100.00
61484;BME280;47349;55.640;37.692;2023-03-14T03:39:01;98617.50;;;-2.79;100.00
61484;BME280;47349;55.640;37.692;2023-03-14T03:41:28;98592.56;;;-2.74;100.00
61484;BME280;47349;55.640;37.692;2023-03-14T03:43:56;98600.91;;;-2.69;100.00
61484;BME280;47349;55.640;37.692;2023-03-14T03:46:23;98596.50;;;-2.68;100.00
61484;BME280;47349;55.640;37.692;2023-03-14T03:48:54;98604.72;;;-2.62;100.00
61484;BME280;47349;55.640;37.692;2023-03-14T03:51:21;98599.38;;;-2.60;100.00
61484;BME280;47349;55.640;37.692;2023-03-14T03:53:48;98595.66;;;-2.58;100.00
61484;BME280;47349;55.640;37.692;2023-03-14T03:56:21;98599.50;;;-2.50;100.00
61484;BME280;47349;55.640;37.692;2023-03-14T03:58:49;98585.28;;;-2.48;100.00
61484;BME280;47349;55.640;37.692;2023-03-14T04:01:16;98602.09;;;-2.39;100.00
61484;BME280;47349;55.640;37.692;2023-03-14T04:03:47;98599.94;;;-2.34;100.00
61484;BME280;47349;55.640;37.692;2023-03-14T04:06:14;98591.84;;;-2.31;100.00
61484;BME280;47349;55.640;37.692;2023-03-14T04:08:44;98595.91;;;-2.27;100.00
61484;BME280;47349;55.640;37.692;2023-03-14T04:11:25;98623.31;;;-2.20;100.00
61484;BME280;47349;55.640;37.692;2023-03-14T04:14:07;98588.81;;;-2.15;100.00
61484;BME280;47349;55.640;37.692;2023-03-14T04:16:34;98600.16;;;-2.15;100.00
61484;BME280;47349;55.640;37.692;2023-03-14T04:19:08;98588.22;;;-2.08;100.00
61484;BME280;47349;55.640;37.692;2023-03-14T04:21:35;98588.09;;;-2.06;100.00
61484;BME280;47349;55.640;37.692;2023-03-14T04:24:03;98578.50;;;-1.96;100.00
61484;BME280;47349;55.640;37.692;2023-03-14T04:26:32;98578.28;;;-1.93;100.00
61484;BME280;47349;55.640;37.692;2023-03-14T04:28:59;98574.69;;;-1.92;100.00
61484;BME280;47349;55.640;37.692;2023-03-14T04:31:26;98580.25;;;-1.85;100.00
61484;BME280;47349;55.640;37.692;2023-03-14T04:33:53;98580.25;;;-1.85;100.00
61484;BME280;47349;55.640;37.692;2023-03-14T04:36:28;98560.53;;;-1.79;100.00
61484;BME280;47349;55.640;37.692;2023-03-14T04:39:01;98567.13;;;-1.74;100.00
61484;BME280;47349;55.640;37.692;2023-03-14T04:41:29;98570.44;;;-1.72;100.00
61484;BME280;47349;55.640;37.692;2023-03-14T04:43:57;98538.84;;;-1.61;100.00
61484;BME280;47349;55.640;37.692;2023-03-14T04:46:25;98553.16;;;-1.53;100.00
61484;BME280;47349;55.640;37.692;2023-03-14T04:48:52;98557.59;;;-1.54;100.00
61484;BME280;47349;55.640;37.692;2023-03-14T04:51:19;98536.66;;;-1.56;100.00
61484;BME280;47349;55.640;37.692;2023-03-14T04:53:49;98540.03;;;-1.53;100.00
61484;BME280;47349;55.640;37.692;2023-03-14T04:56:17;98550.16;;;-1.49;100.00
61484;BME280;47349;55.640;37.692;2023-03-14T04:58:44;98528.59;;;-1.43;100.00
61484;BME280;47349;55.640;37.692;2023-03-14T05:01:14;98541.38;;;-1.38;100.00
61484;BME280;47349;55.640;37.692;2023-03-14T05:04:01;98520.09;;;-1.35;100.00
61484;BME280;47349;55.640;37.692;2023-03-14T05:06:49;98517.13;;;-1.21;100.00
61484;BME280;47349;55.640;37.692;2023-03-14T05:09:33;98512.00;;;-1.22;100.00
61484;BME280;47349;55.640;37.692;2023-03-14T05:12:19;98497.47;;;-1.17;100.00
61484;BME280;47349;55.640;37.692;2023-03-14T05:14:57;98494.47;;;-1.12;100.00
61484;BME280;47349;55.640;37.692;2023-03-14T05:17:57;98492.03;;;-1.04;100.00
61484;BME280;47349;55.640;37.692;2023-03-14T05:20:43;98493.72;;;-0.93;100.00
61484;BME280;47349;55.640;37.692;2023-03-14T05:23:24;98482.25;;;-0.83;100.00
61484;BME280;47349;55.640;37.692;2023-03-14T05:26:34;98486.88;;;-0.75;100.00
61484;BME280;47349;55.640;37.692;2023-03-14T05:29:33;98494.22;;;-0.69;100.00
61484;BME280;47349;55.640;37.692;2023-03-14T05:32:17;98479.00;;;-0.65;100.00
61484;BME280;47349;55.640;37.692;2023-03-14T05:34:50;98485.81;;;-0.63;100.00
61484;BME280;47349;55.640;37.692;2023-03-14T05:37:36;98480.56;;;-0.53;100.00
61484;BME280;47349;55.640;37.692;2023-03-14T05:40:21;98474.34;;;-0.42;100.00
61484;BME280;47349;55.640;37.692;2023-03-14T05:43:10;98487.94;;;-0.37;100.00
61484;BME280;47349;55.640;37.692;2023-03-14T05:45:54;98486.16;;;-0.27;100.00
61484;BME280;47349;55.640;37.692;2023-03-14T05:48:34;98498.19;;;-0.24;100.00
61484;BME280;47349;55.640;37.692;2023-03-14T05:51:33;98502.22;;;-0.11;100.00
61484;BME280;47349;55.640;37.692;2023-03-14T05:54:21;98490.31;;;0.05;100.00
61484;BME280;47349;55.640;37.692;2023-03-14T05:57:14;98500.03;;;0.14;100.00
61484;BME280;47349;55.640;37.692;2023-03-14T06:00:05;98502.13;;;0.30;100.00
61484;BME280;47349;55.640;37.692;2023-03-14T06:02:57;98491.97;;;0.35;100.00
61484;BME280;47349;55.640;37.692;2023-03-14T06:05:29;98501.41;;;0.37;100.00
61484;BME280;47349;55.640;37.692;2023-03-14T06:07:59;98507.78;;;0.44;100.00
61484;BME280;47349;55.640;37.692;2023-03-14T06:10:29;98505.00;;;0.56;100.00
61484;BME280;47349;55.640;37.692;2023-03-14T06:12:57;98500.38;;;0.58;100.00
61484;BME280;47349;55.640;37.692;2023-03-14T06:15:23;98501.09;;;0.60;100.00
61484;BME280;47349;55.640;37.692;2023-03-14T06:17:54;98491.34;;;0.70;100.00
61484;BME280;47349;55.640;37.692;2023-03-14T06:20:22;98481.22;;;0.75;100.00
61484;BME280;47349;55.640;37.692;2023-03-14T06:22:49;98487.44;;;0.84;100.00
61484;BME280;47349;55.640;37.692;2023-03-14T06:25:17;98494.34;;;0.94;100.00
61484;BME280;47349;55.640;37.692;2023-03-14T06:27:46;98457.81;;;0.99;100.00
61484;BME280;47349;55.640;37.692;2023-03-14T06:30:14;98496.50;;;1.09;100.00
61484;BME280;47349;55.640;37.692;2023-03-14T06:32:42;98486.06;;;1.17;100.00
61484;BME280;47349;55.640;37.692;2023-03-14T06:35:12;98459.38;;;1.20;100.00
61484;BME280;47349;55.640;37.692;2023-03-14T06:37:41;98466.03;;;1.24;100.00
61484;BME280;47349;55.640;37.692;2023-03-14T06:40:09;98480.81;;;1.35;100.00
61484;BME280;47349;55.640;37.692;2023-03-14T06:43:03;98455.72;;;1.31;100.00
61484;BME280;47349;55.640;37.692;2023-03-14T06:45:32;98472.97;;;1.25;99.39
61484;BME280;47349;55.640;37.692;2023-03-14T06:48:01;98464.16;;;1.34;98.47
61484;BME280;47349;55.640;37.692;2023-03-14T06:50:38;98469.44;;;1.34;97.62
61484;BME280;47349;55.640;37.692;2023-03-14T06:53:06;98452.19;;;1.40;97.10
61484;BME280;47349;55.640;37.692;2023-03-14T06:55:36;98458.97;;;1.42;96.05
61484;BME280;47349;55.640;37.692;2023-03-14T06:58:03;98463.81;;;1.47;95.79
61484;BME280;47349;55.640;37.692;2023-03-14T07:00:34;98446.34;;;1.46;95.50
61484;BME280;47349;55.640;37.692;2023-03-14T07:03:02;98454.31;;;1.54;95.67
61484;BME280;47349;55.640;37.692;2023-03-14T07:05:33;98458.47;;;1.57;95.36
61484;BME280;47349;55.640;37.692;2023-03-14T07:08:00;98452.91;;;1.60;94.58
61484;BME280;47349;55.640;37.692;2023-03-14T07:10:27;98443.41;;;1.67;94.16
61484;BME280;47349;55.640;37.692;2023-03-14T07:12:55;98454.19;;;1.73;93.77
61484;BME280;47349;55.640;37.692;2023-03-14T07:15:25;98455.66;;;1.86;93.54
61484;BME280;47349;55.640;37.692;2023-03-14T07:17:57;98465.44;;;1.93;93.57
61484;BME280;47349;55.640;37.692;2023-03-14T07:20:25;98452.72;;;1.89;95.15
61484;BME280;47349;55.640;37.692;2023-03-14T07:22:52;98456.63;;;1.85;93.81
61484;BME280;47349;55.640;37.692;2023-03-14T07:25:29;98482.00;;;1.95;94.44
61484;BME280;47349;55.640;37.692;2023-03-14T07:27:56;98486.00;;;1.99;93.78
61484;BME280;47349;55.640;37.692;2023-03-14T07:30:23;98480.38;;;2.02;93.37
61484;BME280;47349;55.640;37.692;2023-03-14T07:32:51;98477.63;;;2.04;94.13
61484;BME280;47349;55.640;37.692;2023-03-14T07:35:21;98481.00;;;2.14;95.34
61484;BME280;47349;55.640;37.692;2023-03-14T07:37:48;98461.06;;;2.20;93.29
61484;BME280;47349;55.640;37.692;2023-03-14T07:40:20;98469.72;;;2.30;92.62
61484;BME280;47349;55.640;37.692;2023-03-14T07:42:48;98482.94;;;2.30;90.39
61484;BME280;47349;55.640;37.692;2023-03-14T07:45:25;98489.97;;;2.39;91.48
61484;BME280;47349;55.640;37.692;2023-03-14T07:47:53;98478.94;;;2.44;92.36
61484;BME280;47349;55.640;37.692;2023-03-14T07:50:24;98490.34;;;2.44;92.04
61484;BME280;47349;55.640;37.692;2023-03-14T07:52:52;98481.88;;;2.41;92.74
61484;BME280;47349;55.640;37.692;2023-03-14T07:55:19;98483.31;;;2.35;91.79
61484;BME280;47349;55.640;37.692;2023-03-14T07:57:46;98479.69;;;2.36;91.83
61484;BME280;47349;55.640;37.692;2023-03-14T08:00:13;98473.94;;;2.41;92.16
61484;BME280;47349;55.640;37.692;2023-03-14T08:02:44;98464.06;;;2.43;91.56
61484;BME280;47349;55.640;37.692;2023-03-14T08:05:11;98432.53;;;2.49;91.45
61484;BME280;47349;55.640;37.692;2023-03-14T08:07:38;98470.44;;;2.58;91.72
61484;BME280;47349;55.640;37.692;2023-03-14T08:10:05;98472.47;;;2.64;91.04
61484;BME280;47349;55.640;37.692;2023-03-14T08:12:32;98495.66;;;2.70;90.95
61484;BME280;47349;55.640;37.692;2023-03-14T08:14:59;98498.25;;;2.62;89.40
61484;BME280;47349;55.640;37.692;2023-03-14T08:17:26;98501.94;;;2.69;89.83
61484;BME280;47349;55.640;37.692;2023-03-14T08:19:54;98489.69;;;2.68;90.02
61484;BME280;47349;55.640;37.692;2023-03-14T08:22:21;98491.72;;;2.74;90.11
61484;BME280;47349;55.640;37.692;2023-03-14T08:24:48;98500.22;;;2.86;91.54
61484;BME280;47349;55.640;37.692;2023-03-14T08:27:15;98476.34;;;2.78;90.40
61484;BME280;47349;55.640;37.692;2023-03-14T08:29:42;98500.91;;;2.88;90.62
61484;BME280;47349;55.640;37.692;2023-03-14T08:32:10;98498.25;;;2.88;89.32
61484;BME280;47349;55.640;37.692;2023-03-14T08:34:37;98503.06;;;2.93;89.76
61484;BME280;47349;55.640;37.692;2023-03-14T08:37:05;98503.97;;;3.01;91.39
61484;BME280;47349;55.640;37.692;2023-03-14T08:39:49;98493.22;;;3.03;88.23
61484;BME280;47349;55.640;37.692;2023-03-14T08:42:16;98488.44;;;3.06;89.72
61484;BME280;47349;55.640;37.692;2023-03-14T08:44:43;98491.38;;;3.03;87.60
61484;BME280;47349;55.640;37.692;2023-03-14T08:47:10;98489.09;;;3.08;86.39
61484;BME280;47349;55.640;37.692;2023-03-14T08:49:38;98487.81;;;3.13;87.25
61484;BME280;47349;55.640;37.692;2023-03-14T08:52:05;98491.28;;;3.13;86.77
61484;BME280;47349;55.640;37.692;2023-03-14T08:54:32;98492.09;;;3.14;87.13
61484;BME280;47349;55.640;37.692;2023-03-14T08:56:59;98497.91;;;3.17;85.97
61484;BME280;47349;55.640;37.692;2023-03-14T08:59:26;98499.09;;;3.23;84.93
61484;BME280;47349;55.640;37.692;2023-03-14T09:01:53;98491.03;;;3.32;84.84
61484;BME280;47349;55.640;37.692;2023-03-14T09:04:21;98494.38;;;3.34;84.22
61484;BME280;47349;55.640;37.692;2023-03-14T09:06:48;98489.25;;;3.41;85.14
61484;BME280;47349;55.640;37.692;2023-03-14T09:09:15;98496.91;;;3.44;84.65
61484;BME280;47349;55.640;37.692;2023-03-14T09:11:48;98493.91;;;3.47;83.92
61484;BME280;47349;55.640;37.692;2023-03-14T09:14:15;98459.34;;;3.49;83.77
61484;BME280;47349;55.640;37.692;2023-03-14T09:16:42;98478.88;;;3.56;84.08
61484;BME280;47349;55.640;37.692;2023-03-14T09:19:09;98481.69;;;3.63;81.75
61484;BME280;47349;55.640;37.692;2023-03-14T09:21:36;98489.69;;;3.71;83.24
61484;BME280;47349;55.640;37.692;2023-03-14T09:24:05;98480.25;;;3.76;82.09
61484;BME280;47349;55.640;37.692;2023-03-14T09:26:32;98481.59;;;3.80;82.31
61484;BME280;47349;55.640;37.692;2023-03-14T09:28:59;98506.44;;;3.79;80.43
61484;BME280;47349;55.640;37.692;2023-03-14T09:31:29;98504.31;;;3.83;81.47
61484;BME280;47349;55.640;37.692;2023-03-14T09:33:56;98486.41;;;3.85;82.02
61484;BME280;47349;55.640;37.692;2023-03-14T09:36:23;98494.19;;;3.86;82.51
61484;BME280;47349;55.640;37.692;2023-03-14T09:38:50;98498.19;;;3.82;83.01
61484;BME280;47349;55.640;37.692;2023-03-14T09:41:25;98500.66;;;3.84;82.81
61484;BME280;47349;55.640;37.692;2023-03-14T09:44:04;98494.88;;;3.89;81.18
61484;BME280;47349;55.640;37.692;2023-03-14T09:46:32;98488.75;;;3.96;81.72
61484;BME280;47349;55.640;37.692;2023-03-14T09:49:02;98494.03;;;3.96;80.41
61484;BME280;47349;55.640;37.692;2023-03-14T09:51:29;98489.09;;;4.01;79.94
61484;BME280;47349;55.640;37.692;2023-03-14T09:53:58;98475.84;;;4.01;79.60
61484;BME280;47349;55.640;37.692;2023-03-14T09:56:26;98492.44;;;4.11;78.43
61484;BME280;47349;55.640;37.692;2023-03-14T09:58:55;98470.88;;;4.15;78.60
61484;BME280;47349;55.640;37.692;2023-03-14T10:01:27;98482.50;;;4.22;77.67
61484;BME280;47349;55.640;37.692;2023-03-14T10:04:03;98465.75;;;4.21;77.50
61484;BME280;47349;55.640;37.692;2023-03-14T10:06:32;98476.53;;;4.28;76.35
61484;BME280;47349;55.640;37.692;2023-03-14T10:08:59;98482.66;;;4.28;76.67
61484;BME280;47349;55.640;37.692;2023-03-14T10:11:26;98485.00;;;4.31;76.67
61484;BME280;47349;55.640;37.692;2023-03-14T10:16:34;98484.97;;;4.48;76.70
61484;BME280;47349;55.640;37.692;2023-03-14T10:19:06;98486.47;;;4.58;76.62
61484;BME280;47349;55.640;37.692;2023-03-14T10:21:36;98472.38;;;4.66;75.00
61484;BME280;47349;55.640;37.692;2023-03-14T10:24:09;98464.91;;;4.70;74.71
61484;BME280;47349;55.640;37.692;2023-03-14T10:26:36;98447.63;;;4.74;74.23
61484;BME280;47349;55.640;37.692;2023-03-14T10:29:08;98449.78;;;4.78;73.92
61484;BME280;47349;55.640;37.692;2023-03-14T10:31:46;98443.13;;;4.82;73.93
61484;BME280;47349;55.640;37.692;2023-03-14T10:34:15;98450.25;;;4.90;74.64
61484;BME280;47349;55.640;37.692;2023-03-14T10:36:43;98456.72;;;4.87;75.70
61484;BME280;47349;55.640;37.692;2023-03-14T10:42:04;98440.31;;;4.84;76.35
61484;BME280;47349;55.640;37.692;2023-03-14T10:44:32;98448.59;;;4.89;76.19
61484;BME280;47349;55.640;37.692;2023-03-14T10:47:01;98459.03;;;4.90;75.69
61484;BME280;47349;55.640;37.692;2023-03-14T10:49:34;98455.06;;;4.95;75.14
61484;BME280;47349;55.640;37.692;2023-03-14T10:54:35;98447.72;;;5.05;75.78
61484;BME280;47349;55.640;37.692;2023-03-14T10:57:03;98430.97;;;5.04;77.02
61484;BME280;47349;55.640;37.692;2023-03-14T10:59:39;98445.66;;;5.23;76.25
61484;BME280;47349;55.640;37.692;2023-03-14T11:04:59;98434.25;;;5.46;74.11
61484;BME280;47349;55.640;37.692;2023-03-14T11:07:41;98437.91;;;5.53;71.84
61484;BME280;47349;55.640;37.692;2023-03-14T11:10:20;98446.13;;;5.66;71.33
61484;BME280;47349;55.640;37.692;2023-03-14T11:20:37;98436.31;;;5.98;70.84
61484;BME280;47349;55.640;37.692;2023-03-14T11:25:50;98435.44;;;6.05;69.09
61484;BME280;47349;55.640;37.692;2023-03-14T11:33:35;98438.50;;;5.94;68.68
61484;BME280;47349;55.640;37.692;2023-03-14T11:36:07;98457.78;;;5.88;67.60
61484;BME280;47349;55.640;37.692;2023-03-14T11:41:23;98451.47;;;5.89;67.91
61484;BME280;47349;55.640;37.692;2023-03-14T11:43:53;98456.63;;;5.90;67.60
61484;BME280;47349;55.640;37.692;2023-03-14T11:49:06;98455.47;;;5.85;67.34
61484;BME280;47349;55.640;37.692;2023-03-14T11:51:39;98436.66;;;5.95;67.72
61484;BME280;47349;55.640;37.692;2023-03-14T11:54:11;98446.31;;;5.96;66.75
61484;BME280;47349;55.640;37.692;2023-03-14T11:56:46;98464.09;;;5.95;66.76
61484;BME280;47349;55.640;37.692;2023-03-14T11:59:17;98475.09;;;5.92;65.84
61484;BME280;47349;55.640;37.692;2023-03-14T12:01:56;98451.25;;;5.99;65.18
61484;BME280;47349;55.640;37.692;2023-03-14T12:07:07;98454.69;;;6.07;65.23
61484;BME280;47349;55.640;37.692;2023-03-14T12:09:39;98477.28;;;6.11;65.37
61484;BME280;47349;55.640;37.692;2023-03-14T12:12:10;98496.91;;;6.10;64.97
61484;BME280;47349;55.640;37.692;2023-03-14T12:14:51;98475.97;;;6.07;64.62
61484;BME280;47349;55.640;37.692;2023-03-14T12:17:20;98480.00;;;6.03;67.91
61484;BME280;47349;55.640;37.692;2023-03-14T12:19:48;98488.97;;;6.02;66.11
61484;BME280;47349;55.640;37.692;2023-03-14T12:22:31;98479.41;;;5.93;65.02
61484;BME280;47349;55.640;37.692;2023-03-14T12:25:42;98475.38;;;5.97;65.50
61484;BME280;47349;55.640;37.692;2023-03-14T12:30:40;98480.06;;;5.95;64.88
61484;BME280;47349;55.640;37.692;2023-03-14T12:33:11;98483.38;;;5.89;66.63
61484;BME280;47349;55.640;37.692;2023-03-14T12:35:40;98492.03;;;5.91;65.27
61484;BME280;47349;55.640;37.692;2023-03-14T12:41:05;98496.84;;;5.87;64.30
61484;BME280;47349;55.640;37.692;2023-03-14T12:43:39;98485.38;;;5.87;64.57
61484;BME280;47349;55.640;37.692;2023-03-14T12:48:33;98493.06;;;5.82;65.04
61484;BME280;47349;55.640;37.692;2023-03-14T12:51:04;98497.91;;;5.78;65.57
61484;BME280;47349;55.640;37.692;2023-03-14T12:56:15;98480.63;;;5.74;65.99
61484;BME280;47349;55.640;37.692;2023-03-14T13:01:21;98507.09;;;5.67;67.33
61484;BME280;47349;55.640;37.692;2023-03-14T13:11:55;98482.91;;;5.54;67.35
61484;BME280;47349;55.640;37.692;2023-03-14T13:14:32;98494.22;;;5.48;66.81
61484;BME280;47349;55.640;37.692;2023-03-14T13:17:00;98493.88;;;5.51;67.19
61484;BME280;47349;55.640;37.692;2023-03-14T13:19:52;98494.03;;;5.50;67.02
61484;BME280;47349;55.640;37.692;2023-03-14T13:22:22;98482.41;;;5.51;66.60
61484;BME280;47349;55.640;37.692;2023-03-14T13:24:58;98486.56;;;5.53;66.15
61484;BME280;47349;55.640;37.692;2023-03-14T13:27:25;98475.44;;;5.50;67.20
61484;BME280;47349;55.640;37.692;2023-03-14T13:29:53;98477.59;;;5.46;67.09
61484;BME280;47349;55.640;37.692;2023-03-14T13:32:21;98484.44;;;5.40;66.04
61484;BME280;47349;55.640;37.692;2023-03-14T13:34:49;98474.19;;;5.37;66.49
61484;BME280;47349;55.640;37.692;2023-03-14T13:37:17;98463.38;;;5.31;65.69
61484;BME280;47349;55.640;37.692;2023-03-14T13:39:49;98468.38;;;5.34;65.86
61484;BME280;47349;55.640;37.692;2023-03-14T13:42:18;98461.75;;;5.30;66.98
61484;BME280;47349;55.640;37.692;2023-03-14T13:44:45;98473.88;;;5.24;66.63
61484;BME280;47349;55.640;37.692;2023-03-14T13:47:17;98477.06;;;5.20;67.82
61484;BME280;47349;55.640;37.692;2023-03-14T13:49:45;98467.78;;;5.07;67.57
61484;BME280;47349;55.640;37.692;2023-03-14T13:54:53;98471.31;;;5.00;67.64
61484;BME280;47349;55.640;37.692;2023-03-14T13:57:20;98465.19;;;4.91;67.64
61484;BME280;47349;55.640;37.692;2023-03-14T14:00:01;98469.50;;;4.92;68.36
61484;BME280;47349;55.640;37.692;2023-03-14T14:02:33;98477.13;;;4.87;68.33
61484;BME280;47349;55.640;37.692;2023-03-14T14:05:00;98487.44;;;4.90;68.39
61484;BME280;47349;55.640;37.692;2023-03-14T14:07:28;98476.13;;;4.88;67.89
61484;BME280;47349;55.640;37.692;2023-03-14T14:09:55;98451.91;;;4.83;68.51
61484;BME280;47349;55.640;37.692;2023-03-14T14:12:27;98463.03;;;4.78;68.30
61484;BME280;47349;55.640;37.692;2023-03-14T14:17:43;98477.50;;;4.84;68.73
61484;BME280;47349;55.640;37.692;2023-03-14T14:20:16;98478.97;;;4.86;68.20
61484;BME280;47349;55.640;37.692;2023-03-14T14:22:46;98478.47;;;4.83;67.61
61484;BME280;47349;55.640;37.692;2023-03-14T14:25:13;98485.44;;;4.84;67.24